Time;durP1;ratioP1;P1;durP2;ratioP2;P2;SDS_P1;SDS_P2;PMS_P1;PMS_P2;Temp;Humidity;BMP_temperature;BMP_pressure;BME280_temperature;BME280_humidity;BME280_pressure;Samples;Min_cycle;Max_cycle;Signal;HPM_P1;HPM_P2
2021/07/21 00:00:11;;;;;;;9.23;7.35;;;;;;;;;;5047103;28;20183;-82
2021/07/21 00:02:38;;;;;;;8.95;7.82;;;;;;;;;;5044562;28;20193;-81
2021/07/21 00:05:08;;;;;;;9.95;7.30;;;;;;;;;;5045313;28;20216;-81
2021/07/21 00:07:34;;;;;;;9.30;7.40;;;;;;;;;;5033986;28;20679;-82
2021/07/21 00:10:00;;;;;;;11.90;6.93;;;;;;;;;;5045338;28;20531;-81
2021/07/21 00:15:11;;;;;;;11.48;7.40;;;;;;;;;;5034732;28;20335;-82
2021/07/21 00:17:38;;;;;;;10.23;7.68;;;;;;;;;;5040746;28;20228;-82
2021/07/21 00:20:14;;;;;;;13.75;8.27;;;;;;;;;;5047807;28;20220;-81
2021/07/21 00:22:41;;;;;;;9.75;7.38;;;;;;;;;;5045862;28;20234;-81
2021/07/21 00:25:09;;;;;;;11.70;7.30;;;;;;;;;;5030610;28;20218;-82
2021/07/21 00:27:36;;;;;;;8.20;7.32;;;;;;;;;;5030388;28;20644;-82
2021/07/21 00:30:03;;;;;;;9.45;7.43;;;;;;;;;;5035301;28;20196;-82
2021/07/21 00:32:29;;;;;;;9.75;7.40;;;;;;;;;;5032975;28;20263;-82
2021/07/21 00:34:55;;;;;;;10.27;7.17;;;;;;;;;;5035245;28;20259;-82
2021/07/21 00:37:21;;;;;;;8.17;7.10;;;;;;;;;;5047633;28;20463;-82
2021/07/21 00:39:47;;;;;;;9.27;7.68;;;;;;;;;;5043762;28;20523;-82
2021/07/21 00:42:14;;;;;;;11.23;7.90;;;;;;;;;;5042978;28;20233;-82
2021/07/21 00:44:40;;;;;;;11.10;8.68;;;;;;;;;;5044005;28;20183;-82
2021/07/21 00:47:06;;;;;;;9.20;8.10;;;;;;;;;;5042717;28;20209;-82
2021/07/21 00:49:32;;;;;;;8.80;7.70;;;;;;;;;;5030999;28;20435;-82
2021/07/21 00:51:59;;;;;;;9.60;8.23;;;;;;;;;;5027356;28;20207;-82
2021/07/21 00:54:25;;;;;;;9.50;8.02;;;;;;;;;;5046118;28;20172;-82
2021/07/21 00:56:52;;;;;;;9.77;7.73;;;;;;;;;;5043930;28;20722;-82
2021/07/21 00:59:19;;;;;;;12.88;7.97;;;;;;;;;;5044093;28;20501;-82
2021/07/21 01:01:45;;;;;;;8.73;7.20;;;;;;;;;;5045124;28;20422;-82
2021/07/21 01:04:11;;;;;;;11.40;7.40;;;;;;;;;;5044466;28;20201;-82
2021/07/21 01:06:37;;;;;;;10.70;6.72;;;;;;;;;;5030025;28;20178;-82
2021/07/21 01:09:06;;;;;;;11.48;9.00;;;;;;;;;;5043506;28;20591;-82
2021/07/21 01:11:43;;;;;;;11.25;8.85;;;;;;;;;;5043455;28;20184;-82
2021/07/21 01:14:17;;;;;;;10.68;7.63;;;;;;;;;;5045191;28;20186;-82
2021/07/21 01:16:45;;;;;;;9.57;7.65;;;;;;;;;;5044138;28;20216;-82
2021/07/21 01:19:14;;;;;;;16.75;9.32;;;;;;;;;;5046011;28;20207;-82
2021/07/21 01:22:19;;;;;;;10.30;7.20;;;;;;;;;;5036108;28;20263;-82
2021/07/21 01:25:04;;;;;;;9.80;8.32;;;;;;;;;;4966919;28;20184;-82
2021/07/21 01:27:49;;;;;;;11.43;8.40;;;;;;;;;;4998483;28;20180;-82
2021/07/21 01:30:19;;;;;;;10.40;7.35;;;;;;;;;;4988267;28;20200;-82
2021/07/21 01:32:47;;;;;;;10.23;8.32;;;;;;;;;;4998424;28;20280;-82
2021/07/21 01:35:17;;;;;;;8.85;7.25;;;;;;;;;;4984910;28;20679;-82
2021/07/21 01:37:47;;;;;;;11.00;7.80;;;;;;;;;;4992979;28;20216;-82
2021/07/21 01:40:16;;;;;;;14.35;8.10;;;;;;;;;;4986034;28;20182;-82
2021/07/21 01:42:43;;;;;;;12.90;8.25;;;;;;;;;;4982046;28;20213;-82
2021/07/21 01:45:10;;;;;;;8.68;7.60;;;;;;;;;;4999085;28;20175;-82
2021/07/21 01:47:37;;;;;;;9.35;8.45;;;;;;;;;;4983485;28;20329;-81
2021/07/21 01:50:05;;;;;;;10.20;7.97;;;;;;;;;;4982509;28;20262;-82
2021/07/21 01:52:31;;;;;;;11.68;8.57;;;;;;;;;;4986450;28;20597;-82
2021/07/21 01:54:59;;;;;;;11.52;8.82;;;;;;;;;;4999588;28;20185;-82
2021/07/21 01:57:28;;;;;;;11.45;8.95;;;;;;;;;;5029098;28;20422;-82
2021/07/21 01:59:54;;;;;;;11.73;8.23;;;;;;;;;;5042073;28;20191;-83
2021/07/21 02:02:22;;;;;;;10.15;7.85;;;;;;;;;;5043732;28;20272;-82
2021/07/21 02:04:49;;;;;;;10.88;7.55;;;;;;;;;;5042412;28;20213;-82
2021/07/21 02:07:15;;;;;;;9.57;7.53;;;;;;;;;;5045885;28;20708;-82
2021/07/21 02:09:42;;;;;;;9.48;7.75;;;;;;;;;;5042196;28;20261;-82
2021/07/21 02:12:08;;;;;;;11.30;7.60;;;;;;;;;;5046111;28;20181;-82
2021/07/21 02:14:34;;;;;;;10.75;7.55;;;;;;;;;;5045545;28;20256;-82
2021/07/21 02:17:01;;;;;;;9.10;7.75;;;;;;;;;;5042599;28;20221;-82
2021/07/21 02:19:32;;;;;;;13.35;7.32;;;;;;;;;;5041857;28;20199;-82
2021/07/21 02:21:59;;;;;;;11.23;7.80;;;;;;;;;;5026789;28;20176;-82
2021/07/21 02:24:25;;;;;;;10.32;7.45;;;;;;;;;;5043966;28;20256;-81
2021/07/21 02:26:51;;;;;;;12.40;10.35;;;;;;;;;;5043091;28;20208;-82
2021/07/21 02:29:19;;;;;;;12.27;8.20;;;;;;;;;;5039588;28;20187;-82
2021/07/21 02:31:48;;;;;;;8.70;7.30;;;;;;;;;;5041580;28;20186;-82
2021/07/21 02:34:14;;;;;;;8.70;7.45;;;;;;;;;;5042801;28;20232;-82
2021/07/21 02:36:40;;;;;;;11.38;7.90;;;;;;;;;;5027044;28;20178;-81
2021/07/21 02:39:07;;;;;;;10.95;8.85;;;;;;;;;;5045154;28;20561;-82
2021/07/21 02:41:34;;;;;;;10.68;8.18;;;;;;;;;;5042860;28;20181;-82
2021/07/21 02:44:00;;;;;;;12.93;9.57;;;;;;;;;;5044249;28;20185;-82
2021/07/21 02:46:27;;;;;;;9.02;7.70;;;;;;;;;;5043671;28;20319;-82
2021/07/21 02:48:53;;;;;;;7.60;6.78;;;;;;;;;;5041998;28;20187;-82
2021/07/21 02:51:27;;;;;;;11.93;8.20;;;;;;;;;;5029907;28;20171;-82
2021/07/21 02:53:57;;;;;;;10.45;6.97;;;;;;;;;;5039386;28;20181;-82
2021/07/21 02:56:25;;;;;;;10.93;9.00;;;;;;;;;;5038792;28;20205;-82
2021/07/21 02:59:01;;;;;;;11.25;8.02;;;;;;;;;;5042877;28;20211;-82
2021/07/21 03:01:27;;;;;;;8.68;7.80;;;;;;;;;;5045289;28;20182;-82
2021/07/21 03:03:54;;;;;;;10.43;7.40;;;;;;;;;;5041581;28;20174;-82
2021/07/21 03:06:21;;;;;;;8.98;7.30;;;;;;;;;;5044330;28;20238;-82
2021/07/21 03:08:48;;;;;;;9.30;8.35;;;;;;;;;;5044105;28;20187;-82
2021/07/21 03:11:14;;;;;;;9.25;8.15;;;;;;;;;;5041588;28;20212;-82
2021/07/21 03:13:45;;;;;;;11.77;8.60;;;;;;;;;;5042931;28;20197;-82
2021/07/21 03:16:13;;;;;;;11.32;7.18;;;;;;;;;;5030005;28;20182;-82
2021/07/21 03:18:40;;;;;;;14.40;8.85;;;;;;;;;;5042250;28;20205;-82
2021/07/21 03:21:06;;;;;;;9.88;7.72;;;;;;;;;;5034753;28;20187;-82
2021/07/21 03:23:32;;;;;;;12.85;7.75;;;;;;;;;;5042391;28;20174;-83
2021/07/21 03:26:00;;;;;;;11.25;7.38;;;;;;;;;;5048860;28;20207;-82
2021/07/21 03:28:26;;;;;;;11.05;8.05;;;;;;;;;;5047427;28;20220;-82
2021/07/21 03:30:54;;;;;;;8.75;7.93;;;;;;;;;;5047130;28;20242;-82
2021/07/21 03:33:20;;;;;;;10.80;8.13;;;;;;;;;;5046998;28;20179;-82
2021/07/21 03:35:47;;;;;;;10.25;8.10;;;;;;;;;;5046818;28;20590;-82
2021/07/21 03:38:16;;;;;;;12.60;9.50;;;;;;;;;;5048584;28;20201;-83
2021/07/21 03:40:43;;;;;;;10.52;7.07;;;;;;;;;;5045633;28;20190;-83
2021/07/21 03:43:09;;;;;;;10.30;7.55;;;;;;;;;;5048182;28;20269;-82
2021/07/21 03:45:35;;;;;;;11.98;7.53;;;;;;;;;;5045727;28;20174;-82
2021/07/21 03:48:01;;;;;;;10.63;7.88;;;;;;;;;;5048093;28;20196;-82
2021/07/21 03:50:28;;;;;;;11.90;8.35;;;;;;;;;;5044916;28;20197;-82
2021/07/21 03:52:54;;;;;;;11.65;7.88;;;;;;;;;;5045573;28;20185;-82
2021/07/21 03:55:23;;;;;;;8.68;7.53;;;;;;;;;;5048474;28;20181;-82
2021/07/21 03:57:50;;;;;;;10.10;8.07;;;;;;;;;;5046142;28;20567;-82
2021/07/21 04:00:17;;;;;;;10.05;7.30;;;;;;;;;;5035864;28;20170;-82
2021/07/21 04:02:45;;;;;;;9.23;7.78;;;;;;;;;;5044533;28;20213;-82
2021/07/21 04:05:14;;;;;;;10.70;8.10;;;;;;;;;;5041206;28;20356;-82
2021/07/21 04:07:40;;;;;;;11.40;7.72;;;;;;;;;;5048116;28;20245;-82
2021/07/21 04:10:07;;;;;;;9.80;8.80;;;;;;;;;;5044221;28;20561;-82
2021/07/21 04:12:35;;;;;;;10.60;7.50;;;;;;;;;;5031512;28;20185;-82
2021/07/21 04:15:01;;;;;;;13.32;8.23;;;;;;;;;;5047306;28;20186;-82
2021/07/21 04:17:30;;;;;;;11.02;8.45;;;;;;;;;;5044743;28;20244;-82
2021/07/21 04:19:56;;;;;;;11.23;7.90;;;;;;;;;;5047170;28;20185;-82
2021/07/21 04:22:23;;;;;;;13.65;7.90;;;;;;;;;;5043294;28;20197;-82
2021/07/21 04:24:49;;;;;;;10.00;7.75;;;;;;;;;;5028981;28;20171;-81
2021/07/21 04:27:15;;;;;;;10.43;7.65;;;;;;;;;;5043898;28;20185;-82
2021/07/21 04:29:46;;;;;;;10.75;8.23;;;;;;;;;;5049858;28;20190;-81
2021/07/21 04:32:13;;;;;;;9.25;6.50;;;;;;;;;;5043233;28;20192;-82
2021/07/21 04:34:39;;;;;;;11.52;8.80;;;;;;;;;;5036684;28;20182;-80
2021/07/21 04:37:06;;;;;;;11.55;7.53;;;;;;;;;;5048874;28;20198;-82
2021/07/21 04:39:32;;;;;;;9.93;7.60;;;;;;;;;;5032815;28;20171;-82
2021/07/21 04:41:58;;;;;;;14.13;8.20;;;;;;;;;;5046235;28;20201;-82
2021/07/21 04:44:24;;;;;;;12.20;7.20;;;;;;;;;;5043986;28;20177;-83
2021/07/21 04:46:52;;;;;;;9.68;7.57;;;;;;;;;;5046761;28;20287;-82
2021/07/21 04:49:19;;;;;;;11.52;7.82;;;;;;;;;;5044558;28;20182;-82
2021/07/21 04:51:47;;;;;;;10.05;8.02;;;;;;;;;;5042693;28;20258;-82
2021/07/21 04:54:13;;;;;;;8.77;7.78;;;;;;;;;;5045868;28;20184;-82
2021/07/21 04:56:39;;;;;;;15.43;8.30;;;;;;;;;;5046615;28;20177;-82
2021/07/21 04:59:05;;;;;;;10.32;7.85;;;;;;;;;;5046884;28;20476;-82
2021/07/21 05:01:32;;;;;;;9.68;7.38;;;;;;;;;;5045028;28;20284;-82
2021/07/21 05:03:58;;;;;;;10.55;7.78;;;;;;;;;;5026744;28;20170;-82
2021/07/21 05:06:25;;;;;;;14.48;8.20;;;;;;;;;;5034063;28;20194;-82
2021/07/21 05:08:51;;;;;;;11.98;8.05;;;;;;;;;;5044761;28;20192;-82
2021/07/21 05:11:18;;;;;;;10.13;8.43;;;;;;;;;;5044129;28;20197;-82
2021/07/21 05:13:44;;;;;;;8.75;7.45;;;;;;;;;;5043645;28;20216;-83
2021/07/21 05:16:10;;;;;;;9.70;7.40;;;;;;;;;;5028032;28;20280;-82
2021/07/21 05:18:36;;;;;;;10.43;7.80;;;;;;;;;;5028229;28;20477;-82
2021/07/21 05:21:06;;;;;;;9.75;7.57;;;;;;;;;;5044628;28;20190;-82
2021/07/21 05:23:33;;;;;;;13.63;8.07;;;;;;;;;;5044595;28;20249;-82
2021/07/21 05:25:59;;;;;;;11.07;8.45;;;;;;;;;;5045708;28;20201;-82
2021/07/21 05:28:26;;;;;;;9.80;7.07;;;;;;;;;;5045140;28;20656;-82
2021/07/21 05:30:52;;;;;;;15.52;8.30;;;;;;;;;;5043673;28;20178;-82
2021/07/21 05:33:18;;;;;;;14.70;7.97;;;;;;;;;;5046572;28;20183;-82
2021/07/21 05:35:45;;;;;;;12.97;8.20;;;;;;;;;;5038062;28;20182;-81
2021/07/21 05:38:11;;;;;;;9.73;8.50;;;;;;;;;;5035822;28;20522;-81
2021/07/21 05:40:37;;;;;;;9.05;8.15;;;;;;;;;;5043520;28;20208;-82
2021/07/21 05:43:04;;;;;;;13.40;8.80;;;;;;;;;;5027574;28;20201;-82
2021/07/21 05:45:31;;;;;;;9.40;8.00;;;;;;;;;;5043361;28;20169;-82
2021/07/21 05:47:57;;;;;;;10.63;8.60;;;;;;;;;;5046703;28;20186;-82
2021/07/21 05:50:23;;;;;;;11.63;7.00;;;;;;;;;;5046019;28;20202;-82
2021/07/21 05:52:49;;;;;;;10.03;7.83;;;;;;;;;;5045596;28;20189;-82
2021/07/21 05:55:15;;;;;;;12.00;7.87;;;;;;;;;;5043846;28;20445;-82
2021/07/21 05:57:44;;;;;;;10.77;8.32;;;;;;;;;;5043131;28;20749;-82
2021/07/21 06:00:10;;;;;;;9.70;8.48;;;;;;;;;;5045758;28;20178;-82
2021/07/21 06:02:37;;;;;;;12.75;7.97;;;;;;;;;;5039323;28;20188;-82
2021/07/21 06:05:03;;;;;;;11.00;8.25;;;;;;;;;;5033962;28;20301;-82
2021/07/21 06:07:29;;;;;;;10.70;7.75;;;;;;;;;;5046296;28;20201;-82
2021/07/21 06:09:55;;;;;;;12.40;8.77;;;;;;;;;;5026548;28;20188;-81
2021/07/21 06:12:22;;;;;;;10.80;9.60;;;;;;;;;;5029356;28;20418;-82
2021/07/21 06:14:48;;;;;;;10.25;9.15;;;;;;;;;;5031931;28;20449;-81
2021/07/21 06:17:15;;;;;;;13.80;9.63;;;;;;;;;;5037509;28;20222;-82
2021/07/21 06:19:41;;;;;;;12.27;8.75;;;;;;;;;;5042662;28;20192;-82
2021/07/21 06:22:07;;;;;;;10.52;8.35;;;;;;;;;;5043725;28;20211;-81
2021/07/21 06:24:33;;;;;;;10.70;8.30;;;;;;;;;;5027657;28;20168;-82
2021/07/21 06:27:00;;;;;;;10.43;9.05;;;;;;;;;;5043279;28;20184;-81
2021/07/21 06:29:26;;;;;;;16.13;9.20;;;;;;;;;;5042088;28;20176;-82
2021/07/21 06:31:52;;;;;;;13.88;8.73;;;;;;;;;;5043286;28;20295;-82
2021/07/21 06:34:18;;;;;;;13.00;9.25;;;;;;;;;;5043355;28;20194;-81
2021/07/21 06:36:44;;;;;;;11.45;8.88;;;;;;;;;;5042071;28;20183;-81
2021/07/21 06:39:10;;;;;;;13.80;9.77;;;;;;;;;;5032400;28;20221;-81
2021/07/21 06:41:36;;;;;;;16.50;10.10;;;;;;;;;;5037222;28;20463;-82
2021/07/21 06:44:03;;;;;;;12.40;10.68;;;;;;;;;;5042474;28;20241;-81
2021/07/21 06:46:30;;;;;;;13.38;10.02;;;;;;;;;;5028970;28;20646;-82
2021/07/21 06:48:56;;;;;;;15.75;10.45;;;;;;;;;;5028192;28;20163;-82
2021/07/21 06:51:22;;;;;;;12.95;10.80;;;;;;;;;;5033735;28;20185;-81
2021/07/21 06:53:49;;;;;;;14.07;9.33;;;;;;;;;;5046884;28;20270;-81
2021/07/21 06:56:15;;;;;;;14.10;9.77;;;;;;;;;;5049019;28;20450;-81
2021/07/21 06:58:41;;;;;;;13.07;10.07;;;;;;;;;;5046700;28;20559;-81
2021/07/21 07:01:07;;;;;;;12.00;9.93;;;;;;;;;;5048602;28;20493;-80
2021/07/21 07:03:34;;;;;;;17.03;9.97;;;;;;;;;;5046589;28;20446;-81
2021/07/21 07:06:00;;;;;;;16.23;10.10;;;;;;;;;;5048285;28;20451;-81
2021/07/21 07:08:27;;;;;;;17.37;10.03;;;;;;;;;;5042525;28;20449;-81
2021/07/21 07:10:53;;;;;;;16.80;11.63;;;;;;;;;;5037953;28;20452;-81
2021/07/21 07:13:19;;;;;;;16.30;11.20;;;;;;;;;;5033740;28;20257;-81
2021/07/21 07:15:45;;;;;;;20.57;12.03;;;;;;;;;;5046270;28;20181;-81
2021/07/21 07:18:14;;;;;;;15.83;10.20;;;;;;;;;;5050839;28;20452;-81
2021/07/21 07:20:44;;;;;;;15.00;9.82;;;;;;;;;;5044574;28;20451;-81
2021/07/21 07:23:10;;;;;;;21.43;11.60;;;;;;;;;;5045316;28;20581;-81
2021/07/21 07:25:36;;;;;;;15.70;11.50;;;;;;;;;;5036229;28;20925;-81
2021/07/21 07:28:02;;;;;;;19.60;11.60;;;;;;;;;;5046153;28;20915;-81
2021/07/21 07:30:28;;;;;;;16.17;10.50;;;;;;;;;;5041143;28;20407;-81
2021/07/21 07:32:54;;;;;;;13.93;10.80;;;;;;;;;;5037477;28;20466;-81
2021/07/21 07:35:20;;;;;;;14.07;11.23;;;;;;;;;;5041400;28;20460;-81
2021/07/21 07:37:46;;;;;;;15.87;11.37;;;;;;;;;;5047265;28;20460;-81
2021/07/21 07:40:12;;;;;;;19.33;11.43;;;;;;;;;;5046968;28;20474;-81
2021/07/21 07:42:38;;;;;;;16.23;12.23;;;;;;;;;;5029546;28;20432;-81
2021/07/21 07:45:05;;;;;;;17.40;11.13;;;;;;;;;;5035821;28;20437;-81
2021/07/21 07:47:32;;;;;;;15.20;11.70;;;;;;;;;;5035811;28;20479;-81
2021/07/21 07:49:59;;;;;;;14.17;12.00;;;;;;;;;;5035699;28;20530;-81
2021/07/21 07:52:25;;;;;;;17.07;12.33;;;;;;;;;;5031711;28;20445;-81
2021/07/21 07:54:50;;;;;;;19.07;12.77;;;;;;;;;;5029095;28;20451;-82
2021/07/21 07:57:16;;;;;;;13.97;11.50;;;;;;;;;;5048479;28;20423;-81
2021/07/21 07:59:42;;;;;;;16.47;13.00;;;;;;;;;;5039023;28;20940;-81
2021/07/21 08:02:09;;;;;;;20.63;13.70;;;;;;;;;;5046632;28;20425;-81
2021/07/21 08:04:35;;;;;;;14.50;12.50;;;;;;;;;;5047528;28;20486;-81
2021/07/21 08:07:01;;;;;;;16.10;11.23;;;;;;;;;;5044865;28;20395;-81
2021/07/21 08:09:27;;;;;;;13.17;11.33;;;;;;;;;;5041801;28;20445;-81
2021/07/21 08:11:56;;;;;;;14.30;11.67;;;;;;;;;;5046141;28;20419;-81
2021/07/21 08:14:22;;;;;;;20.43;13.10;;;;;;;;;;5041984;28;20421;-81
2021/07/21 08:16:52;;;;;;;15.37;13.63;;;;;;;;;;5047238;28;20471;-81
2021/07/21 08:19:18;;;;;;;13.80;11.17;;;;;;;;;;5032609;28;20476;-81
2021/07/21 08:21:44;;;;;;;18.23;12.60;;;;;;;;;;5045524;28;20404;-81
2021/07/21 08:24:10;;;;;;;16.27;12.20;;;;;;;;;;5045110;28;20395;-81
2021/07/21 08:26:36;;;;;;;19.03;12.43;;;;;;;;;;5037213;28;20417;-82
2021/07/21 08:29:02;;;;;;;18.03;14.00;;;;;;;;;;5031358;28;20422;-81
2021/07/21 08:31:28;;;;;;;15.60;12.43;;;;;;;;;;5044913;28;20998;-82
2021/07/21 08:34:00;;;;;;;13.13;11.63;;;;;;;;;;5028192;28;20415;-81
2021/07/21 08:36:26;;;;;;;15.30;12.10;;;;;;;;;;5030033;28;20902;-81
2021/07/21 08:38:52;;;;;;;14.70;10.70;;;;;;;;;;5035497;28;20516;-80
2021/07/21 08:41:19;;;;;;;15.83;11.50;;;;;;;;;;5033223;28;20472;-81
2021/07/21 08:43:45;;;;;;;13.47;10.13;;;;;;;;;;5036139;28;20438;-81
2021/07/21 08:46:11;;;;;;;16.67;11.83;;;;;;;;;;5046472;28;20408;-81
2021/07/21 08:48:37;;;;;;;16.27;11.87;;;;;;;;;;5029055;28;20431;-82
2021/07/21 08:51:04;;;;;;;15.77;11.07;;;;;;;;;;5046580;28;20468;-81
2021/07/21 08:53:30;;;;;;;13.33;11.03;;;;;;;;;;5039038;28;20465;-81
2021/07/21 08:55:56;;;;;;;17.40;11.50;;;;;;;;;;5036825;28;20443;-80
2021/07/21 08:58:23;;;;;;;14.83;11.90;;;;;;;;;;5045855;28;20488;-80
2021/07/21 09:00:52;;;;;;;14.03;10.80;;;;;;;;;;5045174;28;20446;-81
2021/07/21 09:03:19;;;;;;;18.93;12.20;;;;;;;;;;5033753;28;20435;-81
2021/07/21 09:05:47;;;;;;;17.97;11.23;;;;;;;;;;5034299;28;20435;-81
2021/07/21 09:08:13;;;;;;;12.30;10.17;;;;;;;;;;5034149;28;20438;-81
2021/07/21 09:10:40;;;;;;;14.30;11.30;;;;;;;;;;5044321;28;20404;-81
2021/07/21 09:13:06;;;;;;;14.63;10.30;;;;;;;;;;5045709;28;20433;-80
2021/07/21 09:15:32;;;;;;;14.23;10.10;;;;;;;;;;5030376;28;20397;-81
2021/07/21 09:18:01;;;;;;;15.40;12.70;;;;;;;;;;5044760;28;20541;-81
2021/07/21 09:20:28;;;;;;;15.77;10.20;;;;;;;;;;5039965;28;20413;-80
2021/07/21 09:22:54;;;;;;;14.80;10.60;;;;;;;;;;5043544;28;20511;-81
2021/07/21 09:25:25;;;;;;;14.47;10.70;;;;;;;;;;5044323;28;20442;-81
2021/07/21 09:27:52;;;;;;;16.70;11.47;;;;;;;;;;5027092;28;20512;-80
2021/07/21 09:30:20;;;;;;;12.83;10.00;;;;;;;;;;5031732;28;20442;-81
2021/07/21 09:32:57;;;;;;;19.23;11.17;;;;;;;;;;5034824;28;20444;-81
2021/07/21 09:35:24;;;;;;;11.40;9.50;;;;;;;;;;5039118;28;20406;-80
2021/07/21 09:37:50;;;;;;;12.67;10.40;;;;;;;;;;5044832;28;20431;-80
2021/07/21 09:40:17;;;;;;;13.03;10.07;;;;;;;;;;5030231;28;20447;-80
2021/07/21 09:42:43;;;;;;;13.43;10.30;;;;;;;;;;5043203;28;20424;-81
2021/07/21 09:45:10;;;;;;;13.27;8.90;;;;;;;;;;5035205;28;20447;-82
2021/07/21 09:47:39;;;;;;;10.80;8.57;;;;;;;;;;5040414;28;20441;-81
2021/07/21 09:50:20;;;;;;;10.97;8.03;;;;;;;;;;5044537;28;20452;-81
2021/07/21 09:52:51;;;;;;;10.13;9.13;;;;;;;;;;5045756;28;20414;-81
2021/07/21 09:55:18;;;;;;;11.40;9.03;;;;;;;;;;5043596;28;20501;-81
2021/07/21 09:57:55;;;;;;;10.23;9.00;;;;;;;;;;5026708;28;20419;-81
2021/07/21 10:00:22;;;;;;;10.43;8.73;;;;;;;;;;5045859;28;20407;-82
2021/07/21 10:02:49;;;;;;;10.03;7.50;;;;;;;;;;5037871;28;20438;-82
2021/07/21 10:05:15;;;;;;;11.23;7.97;;;;;;;;;;5038502;28;20438;-81
2021/07/21 10:07:48;;;;;;;9.17;7.13;;;;;;;;;;5043990;28;20437;-81
2021/07/21 10:10:22;;;;;;;10.00;6.80;;;;;;;;;;5029289;28;20445;-81
2021/07/21 10:13:08;;;;;;;10.27;6.90;;;;;;;;;;5027958;28;20485;-81
2021/07/21 10:15:34;;;;;;;9.03;8.13;;;;;;;;;;5028101;28;20473;-82
2021/07/21 10:18:28;;;;;;;10.10;7.87;;;;;;;;;;5043705;28;20477;-82
2021/07/21 10:20:54;;;;;;;9.53;6.93;;;;;;;;;;5034629;28;20949;-82
2021/07/21 10:23:23;;;;;;;7.07;6.40;;;;;;;;;;5033436;28;20904;-81
2021/07/21 10:25:48;;;;;;;7.90;7.10;;;;;;;;;;5032045;28;20412;-81
2021/07/21 10:28:14;;;;;;;8.43;7.50;;;;;;;;;;5042971;28;20437;-81
2021/07/21 10:30:41;;;;;;;9.30;8.40;;;;;;;;;;5026884;28;20425;-81
2021/07/21 10:33:07;;;;;;;8.70;7.87;;;;;;;;;;5044222;28;20450;-82
2021/07/21 10:35:33;;;;;;;9.50;7.40;;;;;;;;;;5042355;28;20952;-81
2021/07/21 10:37:59;;;;;;;9.43;7.10;;;;;;;;;;5042340;28;21062;-81
2021/07/21 10:40:28;;;;;;;11.87;8.40;;;;;;;;;;5045538;28;21044;-82
2021/07/21 10:42:56;;;;;;;10.00;6.73;;;;;;;;;;5042884;28;20428;-81
2021/07/21 10:45:23;;;;;;;8.40;7.50;;;;;;;;;;5031542;28;20426;-81
2021/07/21 10:47:55;;;;;;;7.20;6.60;;;;;;;;;;5040286;28;20464;-82
2021/07/21 10:50:40;;;;;;;7.83;6.23;;;;;;;;;;5031905;28;20476;-82
2021/07/21 11:01:26;;;;;;;7.30;6.60;;;;;;;;;;5031998;28;20435;-82
2021/07/21 11:04:01;;;;;;;10.17;7.30;;;;;;;;;;5041605;28;20419;-82
2021/07/21 11:06:47;;;;;;;7.33;6.63;;;;;;;;;;5027613;28;20473;-82
2021/07/21 11:09:14;;;;;;;6.60;6.00;;;;;;;;;;5027269;28;20424;-82
2021/07/21 11:11:41;;;;;;;7.07;6.37;;;;;;;;;;5039645;28;20468;-82
2021/07/21 11:14:09;;;;;;;7.70;6.67;;;;;;;;;;5036599;28;20444;-81
2021/07/21 11:16:44;;;;;;;6.90;6.20;;;;;;;;;;5043456;28;20452;-81
2021/07/21 11:19:34;;;;;;;7.27;6.57;;;;;;;;;;5024839;28;20497;-81
2021/07/21 11:22:04;;;;;;;7.90;6.30;;;;;;;;;;5038763;28;20434;-82
2021/07/21 11:24:31;;;;;;;6.93;6.27;;;;;;;;;;5043235;28;20409;-82
2021/07/21 11:26:58;;;;;;;7.20;6.60;;;;;;;;;;5033946;28;20456;-81
2021/07/21 11:29:24;;;;;;;8.53;6.77;;;;;;;;;;5030626;28;20437;-81
2021/07/21 11:31:53;;;;;;;7.20;6.60;;;;;;;;;;5033772;28;20495;-82
2021/07/21 11:34:33;;;;;;;6.50;5.90;;;;;;;;;;5041507;28;20459;-82
2021/07/21 11:36:59;;;;;;;7.20;6.50;;;;;;;;;;5026407;28;20424;-81
2021/07/21 11:39:42;;;;;;;6.87;6.27;;;;;;;;;;5042787;28;20465;-82
2021/07/21 11:42:12;;;;;;;11.43;7.50;;;;;;;;;;5046834;28;20441;-81
2021/07/21 11:44:40;;;;;;;8.63;7.47;;;;;;;;;;5039466;28;20498;-82
2021/07/21 11:47:09;;;;;;;8.50;7.70;;;;;;;;;;5037490;28;20455;-81
2021/07/21 11:49:35;;;;;;;8.27;7.50;;;;;;;;;;5044685;28;20444;-81
2021/07/21 11:52:06;;;;;;;8.70;6.97;;;;;;;;;;5029759;28;20435;-81
2021/07/21 11:54:37;;;;;;;8.33;7.03;;;;;;;;;;5047892;28;20913;-82
2021/07/21 11:57:04;;;;;;;8.67;7.03;;;;;;;;;;5035435;28;20446;-82
2021/07/21 11:59:34;;;;;;;9.03;8.13;;;;;;;;;;5035932;28;20468;-82
2021/07/21 12:02:15;;;;;;;6.73;6.13;;;;;;;;;;5036424;28;20436;-81
2021/07/21 12:04:42;;;;;;;6.37;5.87;;;;;;;;;;5036460;28;20433;-82
2021/07/21 12:07:08;;;;;;;8.70;7.00;;;;;;;;;;5046575;28;20444;-81
2021/07/21 12:09:36;;;;;;;7.57;6.87;;;;;;;;;;5046979;28;20422;-81
2021/07/21 12:12:03;;;;;;;7.53;6.50;;;;;;;;;;5048026;28;20447;-81
2021/07/21 12:14:30;;;;;;;6.73;6.00;;;;;;;;;;5045694;28;20997;-82
2021/07/21 12:17:22;;;;;;;27.83;7.43;;;;;;;;;;5044308;28;20491;-82
2021/07/21 12:19:56;;;;;;;8.43;7.10;;;;;;;;;;5033789;28;20448;-82
2021/07/21 12:22:23;;;;;;;8.00;6.00;;;;;;;;;;5047846;28;20444;-81
2021/07/21 12:24:50;;;;;;;7.10;6.40;;;;;;;;;;5044493;28;20413;-82
2021/07/21 12:27:24;;;;;;;7.30;6.60;;;;;;;;;;5041422;28;20426;-81
2021/07/21 12:29:50;;;;;;;9.00;8.20;;;;;;;;;;5037911;28;20496;-81
2021/07/21 12:32:17;;;;;;;7.50;6.70;;;;;;;;;;5036860;28;20463;-81
2021/07/21 12:34:47;;;;;;;9.53;7.30;;;;;;;;;;5046348;28;20424;-81
2021/07/21 12:37:15;;;;;;;6.93;6.30;;;;;;;;;;5045235;28;20435;-81
2021/07/21 12:39:42;;;;;;;8.37;7.67;;;;;;;;;;5056527;28;20452;-81
2021/07/21 12:42:12;;;;;;;9.10;6.77;;;;;;;;;;5035184;28;20536;-82
2021/07/21 12:44:43;;;;;;;7.80;7.13;;;;;;;;;;5042239;28;20432;-82
2021/07/21 12:47:10;;;;;;;9.07;7.00;;;;;;;;;;5046369;28;20470;-81
2021/07/21 12:49:38;;;;;;;6.73;6.23;;;;;;;;;;5042789;28;20421;-81
2021/07/21 12:52:05;;;;;;;7.60;6.83;;;;;;;;;;5029179;28;20530;-82
2021/07/21 12:54:31;;;;;;;7.77;7.07;;;;;;;;;;5045476;28;20478;-81
2021/07/21 12:56:57;;;;;;;7.73;6.80;;;;;;;;;;5036211;28;20437;-83
2021/07/21 12:59:33;;;;;;;6.90;6.23;;;;;;;;;;5038839;28;20464;-82
2021/07/21 13:02:10;;;;;;;6.63;6.13;;;;;;;;;;5042351;28;20432;-81
2021/07/21 13:04:36;;;;;;;6.23;5.73;;;;;;;;;;5033036;28;20424;-81
2021/07/21 13:07:09;;;;;;;6.53;5.97;;;;;;;;;;5043952;28;20516;-81
2021/07/21 13:09:38;;;;;;;6.90;6.30;;;;;;;;;;5044011;28;20421;-82
2021/07/21 13:12:17;;;;;;;6.27;5.67;;;;;;;;;;5036278;28;20429;-82
2021/07/21 13:14:43;;;;;;;6.77;6.10;;;;;;;;;;5035113;28;20508;-82
2021/07/21 13:17:13;;;;;;;7.17;6.43;;;;;;;;;;5037300;28;20468;-82
2021/07/21 13:19:39;;;;;;;6.50;6.00;;;;;;;;;;5046481;28;20809;-81
2021/07/21 13:22:20;;;;;;;6.90;6.30;;;;;;;;;;5044553;28;20436;-82
2021/07/21 13:24:46;;;;;;;7.40;6.80;;;;;;;;;;5037088;28;20444;-82
2021/07/21 13:27:13;;;;;;;7.43;6.47;;;;;;;;;;5032321;28;20417;-81
2021/07/21 13:29:41;;;;;;;7.90;7.23;;;;;;;;;;5031891;28;20429;-82
2021/07/21 13:32:07;;;;;;;7.67;7.00;;;;;;;;;;5035123;28;20444;-82
2021/07/21 13:34:34;;;;;;;7.97;6.90;;;;;;;;;;5046546;28;20449;-81
2021/07/21 13:37:01;;;;;;;7.40;6.30;;;;;;;;;;5043376;28;20776;-83
2021/07/21 13:39:28;;;;;;;7.27;6.57;;;;;;;;;;5044747;28;20518;-82
2021/07/21 13:41:58;;;;;;;7.93;7.30;;;;;;;;;;5044242;28;20443;-82
2021/07/21 13:44:25;;;;;;;8.13;7.30;;;;;;;;;;5038864;28;20943;-81
2021/07/21 13:46:53;;;;;;;7.00;6.40;;;;;;;;;;5033790;28;20943;-82
2021/07/21 13:49:26;;;;;;;7.67;6.83;;;;;;;;;;5046317;28;20443;-81
2021/07/21 13:51:56;;;;;;;8.80;7.50;;;;;;;;;;5044490;28;20419;-81
2021/07/21 13:54:23;;;;;;;8.43;7.63;;;;;;;;;;5038817;28;20424;-80
2021/07/21 13:56:50;;;;;;;7.83;7.10;;;;;;;;;;5036054;28;20437;-82
2021/07/21 13:59:16;;;;;;;8.20;7.20;;;;;;;;;;5031841;28;20479;-82
2021/07/21 14:01:43;;;;;;;9.40;7.00;;;;;;;;;;5031123;28;20443;-81
2021/07/21 14:04:10;;;;;;;7.73;7.03;;;;;;;;;;5043183;28;20436;-81
2021/07/21 14:06:36;;;;;;;7.47;6.80;;;;;;;;;;5028086;28;20417;-82
2021/07/21 14:09:03;;;;;;;8.20;7.20;;;;;;;;;;5032681;28;20484;-82
2021/07/21 14:11:29;;;;;;;7.40;6.70;;;;;;;;;;5037545;28;20954;-81
2021/07/21 14:13:55;;;;;;;9.07;7.73;;;;;;;;;;5042596;28;20504;-82
2021/07/21 14:16:22;;;;;;;9.77;7.50;;;;;;;;;;5044447;28;20448;-81
2021/07/21 14:18:48;;;;;;;7.93;7.23;;;;;;;;;;5025767;28;20536;-80
2021/07/21 14:21:15;;;;;;;8.30;7.40;;;;;;;;;;5044460;28;20933;-81
2021/07/21 14:23:41;;;;;;;8.47;7.47;;;;;;;;;;5043489;28;20439;-82
2021/07/21 14:26:07;;;;;;;7.87;7.07;;;;;;;;;;5044095;28;20490;-82
2021/07/21 14:28:34;;;;;;;7.97;7.27;;;;;;;;;;5041792;28;20456;-83
2021/07/21 14:31:00;;;;;;;9.07;8.17;;;;;;;;;;5025943;28;20459;-81
2021/07/21 14:33:27;;;;;;;8.40;7.37;;;;;;;;;;5032576;28;20419;-82
2021/07/21 14:35:53;;;;;;;7.70;7.00;;;;;;;;;;5041676;28;20442;-81
2021/07/21 14:38:19;;;;;;;9.30;7.00;;;;;;;;;;5044137;28;20991;-81
2021/07/21 14:40:45;;;;;;;8.20;7.40;;;;;;;;;;5043977;28;20445;-80
2021/07/21 14:43:12;;;;;;;8.83;7.90;;;;;;;;;;5028021;28;20458;-81
2021/07/21 14:45:38;;;;;;;10.70;8.53;;;;;;;;;;5027597;28;20474;-81
2021/07/21 14:48:04;;;;;;;10.60;8.50;;;;;;;;;;5044372;28;20444;-81